Time;durP1;ratioP1;P1;durP2;ratioP2;P2;SDS_P1;SDS_P2;PMS_P1;PMS_P2;Temp;Humidity;BMP_temperature;BMP_pressure;BME280_temperature;BME280_humidity;BME280_pressure;Samples;Min_cycle;Max_cycle;Signal;HPM_P1;HPM_P2
2023/01/01 00:01:28;;;;;;;18.63;11.97;;;15.10;99.90;;;;;;5033107;28;20211;-48
2023/01/01 00:03:58;;;;;;;15.90;9.80;;;15.10;99.90;;;;;;5008835;28;20208;-51
2023/01/01 00:06:26;;;;;;;16.10;8.80;;;15.10;99.90;;;;;;5022524;28;20720;-48
2023/01/01 00:10:26;;;;;;;14.13;9.50;;;15.10;99.90;;;;;;5019030;28;20199;-46
2023/01/01 00:11:40;;;;;;;15.40;8.57;;;15.10;99.90;;;;;;5025091;28;20686;-46
2023/01/01 00:14:07;;;;;;;14.57;7.33;;;15.20;99.90;;;;;;5042467;28;20210;-50
2023/01/01 00:16:33;;;;;;;16.23;7.53;;;15.20;99.90;;;;;;5029185;28;20225;-48
2023/01/01 00:19:02;;;;;;;11.07;6.20;;;15.20;99.90;;;;;;5012837;28;20208;-50
2023/01/01 00:21:29;;;;;;;11.57;5.77;;;15.20;99.90;;;;;;5028462;28;20195;-48
2023/01/01 00:23:55;;;;;;;10.00;5.10;;;15.20;99.90;;;;;;5022890;28;20281;-47
2023/01/01 00:26:22;;;;;;;7.93;4.40;;;15.20;99.90;;;;;;5033673;28;20716;-47
2023/01/01 00:28:49;;;;;;;10.07;4.30;;;15.20;99.90;;;;;;5021722;28;20207;-48
2023/01/01 00:31:18;;;;;;;10.63;4.13;;;15.20;99.90;;;;;;5033474;28;20849;-46
2023/01/01 00:33:49;;;;;;;12.60;4.93;;;15.30;99.90;;;;;;5019456;28;20206;-49
2023/01/01 00:36:18;;;;;;;12.63;4.63;;;15.30;99.90;;;;;;5026202;28;20227;-48
2023/01/01 00:38:45;;;;;;;12.70;5.53;;;15.30;99.90;;;;;;5020137;28;20634;-51
2023/01/01 00:41:13;;;;;;;8.57;4.33;;;15.30;99.90;;;;;;5026515;28;20203;-46
2023/01/01 00:43:41;;;;;;;7.10;4.57;;;15.30;99.90;;;;;;5025927;28;20227;-45
2023/01/01 00:46:08;;;;;;;9.83;5.33;;;15.30;99.90;;;;;;5028792;28;20230;-44
2023/01/01 00:48:35;;;;;;;8.70;4.70;;;15.30;99.90;;;;;;5031194;28;20199;-50
2023/01/01 00:51:03;;;;;;;13.93;5.27;;;15.30;99.90;;;;;;5010193;28;20207;-49
2023/01/01 00:53:31;;;;;;;11.60;6.03;;;15.30;99.90;;;;;;5021354;28;20196;-48
2023/01/01 00:55:58;;;;;;;12.43;5.67;;;15.30;99.90;;;;;;5028366;28;20226;-44
2023/01/01 00:58:25;;;;;;;10.70;6.43;;;15.30;99.90;;;;;;5021513;28;20203;-50
2023/01/01 01:00:53;;;;;;;8.20;5.57;;;15.20;99.90;;;;;;5027369;28;20327;-47
2023/01/01 01:03:30;;;;;;;9.50;5.50;;;15.30;99.90;;;;;;5025420;28;20223;-45
2023/01/01 01:05:59;;;;;;;11.87;5.30;;;15.30;99.90;;;;;;5011811;28;20711;-45
2023/01/01 01:08:27;;;;;;;7.77;5.17;;;15.30;99.90;;;;;;5019949;28;20210;-49
2023/01/01 01:10:55;;;;;;;13.77;5.60;;;15.30;99.90;;;;;;5020195;28;20204;-47
2023/01/01 01:13:22;;;;;;;8.27;5.37;;;15.30;99.90;;;;;;5029206;28;20202;-47
2023/01/01 01:15:48;;;;;;;8.20;5.23;;;15.30;99.90;;;;;;5035614;28;20262;-46
2023/01/01 01:18:15;;;;;;;11.73;5.20;;;15.30;99.90;;;;;;5023288;28;20204;-48
2023/01/01 01:20:50;;;;;;;9.23;4.90;;;15.30;99.90;;;;;;5030051;28;20207;-43
2023/01/01 01:23:18;;;;;;;8.10;5.10;;;15.30;99.90;;;;;;5022569;28;20338;-48
2023/01/01 01:25:44;;;;;;;14.53;6.27;;;15.30;99.90;;;;;;5022718;28;20223;-46
2023/01/01 01:28:13;;;;;;;10.67;4.50;;;15.30;99.90;;;;;;5022120;28;20229;-45
2023/01/01 01:30:40;;;;;;;8.70;4.40;;;15.30;99.90;;;;;;5023354;28;20585;-47
2023/01/01 01:33:07;;;;;;;11.27;5.27;;;15.40;99.90;;;;;;5016446;28;20204;-45
2023/01/01 01:35:36;;;;;;;10.90;4.17;;;15.40;99.90;;;;;;5032979;28;20222;-45
2023/01/01 01:38:03;;;;;;;12.07;4.70;;;15.30;99.90;;;;;;5016289;28;20204;-48
2023/01/01 01:40:29;;;;;;;12.67;4.30;;;15.40;99.90;;;;;;5017867;28;20234;-50
2023/01/01 01:42:56;;;;;;;9.53;4.17;;;15.40;99.90;;;;;;5035592;28;20215;-47
2023/01/01 01:45:24;;;;;;;8.63;3.90;;;15.40;99.90;;;;;;5026184;28;20226;-45
2023/01/01 01:47:54;;;;;;;11.27;5.50;;;15.40;99.90;;;;;;5033575;28;20200;-49
2023/01/01 01:50:25;;;;;;;9.93;4.13;;;15.40;99.90;;;;;;5032989;28;20740;-47
2023/01/01 01:53:04;;;;;;;7.87;3.53;;;15.40;99.90;;;;;;5018992;28;20199;-47
2023/01/01 01:55:35;;;;;;;9.57;3.93;;;15.40;99.90;;;;;;5027407;28;20234;-47
2023/01/01 01:58:03;;;;;;;14.10;3.73;;;15.40;99.90;;;;;;5024069;28;20208;-47
2023/01/01 02:00:31;;;;;;;8.07;3.70;;;15.40;99.90;;;;;;5039618;28;20555;-50
2023/01/01 02:03:03;;;;;;;12.43;4.30;;;15.40;99.90;;;;;;5027035;28;20723;-45
2023/01/01 02:05:30;;;;;;;8.87;3.87;;;15.40;99.90;;;;;;5024674;28;20230;-45
2023/01/01 02:07:59;;;;;;;14.20;5.33;;;15.40;99.90;;;;;;5020253;28;20215;-49
2023/01/01 02:10:27;;;;;;;11.67;3.63;;;15.40;99.90;;;;;;5033272;28;20203;-47
2023/01/01 02:12:54;;;;;;;8.00;3.77;;;15.30;99.90;;;;;;5031357;28;20875;-46
2023/01/01 02:15:23;;;;;;;12.03;3.67;;;15.30;99.90;;;;;;5028431;28;20232;-46
2023/01/01 02:17:59;;;;;;;4.37;3.30;;;15.30;99.90;;;;;;5024173;28;20195;-45
2023/01/01 02:20:35;;;;;;;5.83;3.30;;;15.30;99.90;;;;;;5026718;28;20617;-47
2023/01/01 02:23:28;;;;;;;7.17;3.70;;;15.40;99.90;;;;;;5014567;28;20708;-50
2023/01/01 02:26:13;;;;;;;8.80;3.57;;;15.30;99.90;;;;;;5028663;28;20729;-46
2023/01/01 02:28:55;;;;;;;9.00;4.07;;;15.40;99.90;;;;;;5027075;28;20199;-53
2023/01/01 02:31:26;;;;;;;10.80;3.77;;;15.30;99.90;;;;;;5037696;28;20195;-48
2023/01/01 02:33:58;;;;;;;6.80;3.53;;;15.30;99.90;;;;;;5036196;28;20199;-49
2023/01/01 02:36:28;;;;;;;7.53;3.30;;;15.30;99.90;;;;;;5025001;28;20216;-45
2023/01/01 02:38:57;;;;;;;6.63;3.87;;;15.30;99.90;;;;;;5025900;28;20218;-48
2023/01/01 02:41:28;;;;;;;8.30;3.97;;;15.20;99.90;;;;;;5030127;28;20212;-47
2023/01/01 02:43:57;;;;;;;6.77;3.63;;;15.20;99.90;;;;;;5025460;28;20224;-49
2023/01/01 02:46:23;;;;;;;9.03;3.73;;;15.20;99.90;;;;;;5023540;28;20638;-45
2023/01/01 02:48:51;;;;;;;7.53;3.33;;;15.10;99.90;;;;;;5024025;28;20959;-47
2023/01/01 02:51:29;;;;;;;10.07;4.33;;;15.20;99.90;;;;;;5024416;28;20208;-47
2023/01/01 02:54:05;;;;;;;9.67;4.00;;;15.10;99.90;;;;;;5010594;28;20666;-45
2023/01/01 02:56:38;;;;;;;7.30;3.63;;;15.20;99.90;;;;;;5027037;28;20227;-47
2023/01/01 03:02:10;;;;;;;8.23;3.90;;;15.20;99.90;;;;;;5044411;28;20202;-48
2023/01/01 03:04:49;;;;;;;10.00;4.07;;;15.20;99.90;;;;;;5040481;28;20215;-46
2023/01/01 03:07:26;;;;;;;7.93;4.33;;;15.30;99.90;;;;;;5043783;28;20203;-46
2023/01/01 03:09:59;;;;;;;6.70;4.03;;;15.30;99.90;;;;;;5015620;28;20215;-46
2023/01/01 03:12:38;;;;;;;7.33;4.50;;;15.30;99.90;;;;;;5023139;28;20219;-47
2023/01/01 03:15:14;;;;;;;6.90;4.40;;;15.20;99.90;;;;;;5022127;28;20220;-50
2023/01/01 03:17:46;;;;;;;12.73;4.97;;;15.20;99.90;;;;;;5025284;28;20203;-46
2023/01/01 03:20:19;;;;;;;9.77;5.10;;;15.20;99.90;;;;;;5021477;28;20196;-47
2023/01/01 03:22:48;;;;;;;7.83;5.17;;;15.20;99.90;;;;;;5024569;28;20241;-45
2023/01/01 03:25:21;;;;;;;9.37;5.23;;;15.20;99.90;;;;;;5012282;28;20285;-46
2023/01/01 03:27:50;;;;;;;11.23;5.53;;;15.20;99.90;;;;;;5024933;28;20572;-46
2023/01/01 03:30:21;;;;;;;10.17;5.17;;;15.10;99.90;;;;;;5032123;28;20200;-46
2023/01/01 03:33:00;;;;;;;8.57;4.97;;;15.00;99.90;;;;;;5025494;28;20572;-45
2023/01/01 03:35:32;;;;;;;12.10;5.30;;;15.00;99.90;;;;;;5023864;28;20226;-48
2023/01/01 03:38:00;;;;;;;8.30;4.87;;;15.00;99.90;;;;;;5022121;28;20208;-47
2023/01/01 03:40:29;;;;;;;7.30;4.83;;;15.00;99.90;;;;;;5011381;28;20207;-46
2023/01/01 03:43:00;;;;;;;6.93;4.47;;;15.00;99.90;;;;;;5024451;28;20203;-46
2023/01/01 03:45:33;;;;;;;10.33;5.37;;;14.90;99.90;;;;;;5028111;28;20720;-51
2023/01/01 03:48:01;;;;;;;8.90;5.13;;;14.90;99.90;;;;;;5026049;28;20582;-47
2023/01/01 03:50:34;;;;;;;8.73;5.73;;;14.90;99.90;;;;;;5028937;28;20210;-52
2023/01/01 03:53:07;;;;;;;8.40;5.73;;;15.00;99.90;;;;;;5023622;28;20222;-48
2023/01/01 03:55:38;;;;;;;10.50;5.90;;;15.00;99.90;;;;;;5010772;28;20246;-45
2023/01/01 03:58:13;;;;;;;13.40;5.93;;;15.00;99.90;;;;;;5023840;28;20200;-47
2023/01/01 04:00:46;;;;;;;10.07;5.83;;;15.00;99.90;;;;;;5021345;28;20689;-50
2023/01/01 04:03:18;;;;;;;8.73;5.57;;;15.00;99.90;;;;;;5038499;28;20199;-52
2023/01/01 04:05:46;;;;;;;8.63;5.60;;;14.90;99.90;;;;;;5039576;28;20211;-51
2023/01/01 04:08:14;;;;;;;9.07;5.93;;;14.90;99.90;;;;;;5043418;28;20207;-46
2023/01/01 04:10:45;;;;;;;8.53;5.93;;;15.00;99.90;;;;;;5020411;28;20193;-51
2023/01/01 04:13:13;;;;;;;9.50;5.57;;;14.90;99.90;;;;;;5012056;28;20211;-50
2023/01/01 04:15:41;;;;;;;9.77;5.33;;;14.90;99.90;;;;;;5021421;28;20234;-46
2023/01/01 04:18:08;;;;;;;8.67;5.23;;;14.80;99.90;;;;;;5028055;28;20196;-50
2023/01/01 04:20:35;;;;;;;9.47;5.63;;;14.80;99.90;;;;;;5021136;28;20304;-49
2023/01/01 04:23:03;;;;;;;11.37;5.93;;;14.90;99.90;;;;;;5023075;28;20258;-46
2023/01/01 04:25:30;;;;;;;7.43;5.00;;;14.80;99.90;;;;;;5030733;28;20621;-45
2023/01/01 04:27:58;;;;;;;10.97;5.40;;;14.80;99.90;;;;;;5010525;28;22698;-46
2023/01/01 04:30:25;;;;;;;10.70;5.10;;;14.80;99.90;;;;;;5022109;28;20626;-45
2023/01/01 04:32:54;;;;;;;9.77;5.43;;;14.80;99.90;;;;;;5026843;28;20195;-47
2023/01/01 04:35:22;;;;;;;8.40;4.97;;;14.80;99.90;;;;;;5035245;28;20221;-49
2023/01/01 04:37:48;;;;;;;9.47;4.70;;;14.90;99.90;;;;;;5031709;28;20203;-45
2023/01/01 04:40:16;;;;;;;10.07;5.20;;;14.90;99.90;;;;;;5027444;28;20207;-46
2023/01/01 04:42:43;;;;;;;9.97;4.73;;;14.80;99.90;;;;;;5019646;28;20199;-48
2023/01/01 04:45:13;;;;;;;7.23;4.70;;;14.80;99.90;;;;;;5010139;28;20625;-50
2023/01/01 04:47:41;;;;;;;10.80;4.40;;;14.80;99.90;;;;;;5020903;28;20207;-49
2023/01/01 04:50:10;;;;;;;9.73;4.73;;;14.80;99.90;;;;;;5027532;28;20203;-51
2023/01/01 04:52:36;;;;;;;8.30;4.20;;;14.80;99.90;;;;;;5020629;28;20659;-49
2023/01/01 04:55:03;;;;;;;7.07;4.53;;;14.80;99.90;;;;;;5029005;28;20272;-46
2023/01/01 04:57:30;;;;;;;8.97;4.40;;;14.80;99.90;;;;;;5030519;28;20231;-47
2023/01/01 04:59:57;;;;;;;12.37;5.13;;;14.80;99.90;;;;;;5008495;28;20212;-46
2023/01/01 05:02:24;;;;;;;8.97;4.87;;;14.80;99.90;;;;;;5021766;28;20580;-47
2023/01/01 05:04:51;;;;;;;12.57;4.17;;;14.80;99.90;;;;;;5031965;28;20224;-48
2023/01/01 05:07:19;;;;;;;5.87;3.80;;;14.80;99.90;;;;;;5033452;28;20195;-50
2023/01/01 05:09:46;;;;;;;10.33;4.17;;;14.80;99.90;;;;;;5023004;28;20223;-51
2023/01/01 05:12:13;;;;;;;9.40;4.23;;;14.80;99.90;;;;;;5028922;28;20686;-50
2023/01/01 05:14:40;;;;;;;6.97;3.50;;;14.80;99.90;;;;;;5005909;28;20192;-47
2023/01/01 05:17:07;;;;;;;5.10;3.60;;;14.70;99.90;;;;;;5023545;28;20249;-50
2023/01/01 05:19:33;;;;;;;4.63;3.30;;;14.70;99.90;;;;;;5027816;28;20326;-50
2023/01/01 05:22:00;;;;;;;6.87;3.20;;;14.80;99.90;;;;;;5022470;28;20282;-46
2023/01/01 05:24:30;;;;;;;7.17;3.03;;;14.80;99.90;;;;;;5032104;28;20215;-47
2023/01/01 05:26:57;;;;;;;8.07;2.80;;;14.80;99.90;;;;;;5032803;28;20219;-47
2023/01/01 05:29:23;;;;;;;6.43;2.83;;;14.90;99.90;;;;;;5026972;28;20647;-47
2023/01/01 05:31:52;;;;;;;6.93;2.90;;;14.90;99.90;;;;;;5009231;28;20717;-48
2023/01/01 05:34:18;;;;;;;7.00;3.27;;;14.90;99.90;;;;;;5025755;28;20764;-49
2023/01/01 05:36:45;;;;;;;8.50;3.20;;;15.00;99.90;;;;;;5023030;28;20239;-48
2023/01/01 05:39:12;;;;;;;5.47;2.50;;;15.00;99.90;;;;;;5027139;28;20262;-48
2023/01/01 05:41:41;;;;;;;3.63;2.73;;;15.00;99.90;;;;;;5020227;28;20279;-47
2023/01/01 05:44:10;;;;;;;7.07;2.70;;;14.90;99.90;;;;;;5027111;28;20219;-50
2023/01/01 05:46:37;;;;;;;5.10;2.97;;;15.00;99.90;;;;;;5019740;28;20604;-45
2023/01/01 05:49:04;;;;;;;3.87;2.50;;;14.90;99.90;;;;;;5034606;28;20234;-47
2023/01/01 05:51:31;;;;;;;6.07;3.07;;;14.90;99.90;;;;;;5028370;28;20753;-50
2023/01/01 05:53:59;;;;;;;8.37;2.83;;;14.90;99.90;;;;;;5038559;28;20192;-47
2023/01/01 05:56:26;;;;;;;9.33;2.63;;;15.00;99.90;;;;;;5034091;28;20223;-49
2023/01/01 05:58:56;;;;;;;6.23;2.57;;;14.90;99.90;;;;;;5031747;28;20947;-50
2023/01/01 06:01:24;;;;;;;5.87;2.73;;;14.90;99.90;;;;;;5026099;28;20565;-50
2023/01/01 06:03:52;;;;;;;5.40;2.43;;;14.90;99.90;;;;;;5017921;28;20215;-46
2023/01/01 06:06:22;;;;;;;6.07;2.70;;;14.90;99.90;;;;;;5026382;28;20258;-46
2023/01/01 06:08:50;;;;;;;2.53;2.33;;;15.00;99.90;;;;;;5024015;28;20289;-47
2023/01/01 06:11:17;;;;;;;4.77;2.10;;;14.90;99.90;;;;;;5028294;28;20234;-46
2023/01/01 06:13:44;;;;;;;8.17;2.57;;;14.90;99.90;;;;;;5041579;28;20191;-52
2023/01/01 06:16:13;;;;;;;5.10;2.20;;;15.00;99.90;;;;;;5037832;28;20216;-46
2023/01/01 06:18:41;;;;;;;4.67;2.50;;;14.90;99.90;;;;;;5008662;28;20308;-49
2023/01/01 06:21:09;;;;;;;8.87;2.50;;;14.90;99.90;;;;;;5027931;28;20207;-48
2023/01/01 06:23:36;;;;;;;5.70;2.47;;;15.00;99.90;;;;;;5022985;28;20212;-47
2023/01/01 06:26:05;;;;;;;8.00;2.10;;;15.00;99.90;;;;;;5031517;28;20223;-51
2023/01/01 06:28:32;;;;;;;4.70;2.40;;;15.00;99.90;;;;;;5026711;28;20203;-48
2023/01/01 06:31:00;;;;;;;6.67;2.00;;;15.10;99.90;;;;;;5023108;28;20204;-49
2023/01/01 06:33:29;;;;;;;6.93;1.87;;;15.00;99.90;;;;;;5031211;28;20235;-48
2023/01/01 06:35:56;;;;;;;6.33;2.20;;;15.10;99.90;;;;;;5007756;28;20227;-49
2023/01/01 06:38:23;;;;;;;5.93;2.47;;;15.10;99.90;;;;;;5025097;28;20212;-46
2023/01/01 06:40:58;;;;;;;6.53;2.40;;;15.00;99.90;;;;;;5024269;28;20210;-45
2023/01/01 06:43:25;;;;;;;3.03;1.93;;;15.10;99.90;;;;;;5025477;28;20662;-49
2023/01/01 06:46:03;;;;;;;5.83;1.90;;;15.10;99.90;;;;;;5023953;28;20228;-47
2023/01/01 06:48:34;;;;;;;3.43;1.90;;;15.10;99.90;;;;;;5038529;28;20207;-47
2023/01/01 06:51:05;;;;;;;4.87;1.50;;;15.10;99.90;;;;;;5009797;28;20694;-49
2023/01/01 06:53:33;;;;;;;6.13;1.70;;;15.10;99.90;;;;;;5033098;28;20272;-47
2023/01/01 06:56:00;;;;;;;2.93;1.87;;;15.00;99.90;;;;;;5031620;28;20222;-48
2023/01/01 06:58:27;;;;;;;5.50;1.80;;;15.00;99.90;;;;;;5062171;28;20214;-46
2023/01/01 07:00:54;;;;;;;3.57;1.97;;;14.90;99.90;;;;;;5041663;28;20203;-50
2023/01/01 07:03:21;;;;;;;4.47;1.57;;;14.90;99.90;;;;;;5032313;28;20202;-46
2023/01/01 07:05:50;;;;;;;3.80;1.97;;;14.90;99.90;;;;;;5011326;28;20230;-45
2023/01/01 07:08:17;;;;;;;3.30;1.70;;;14.90;99.90;;;;;;5028720;28;20191;-48
2023/01/01 07:10:44;;;;;;;5.50;2.00;;;14.90;99.90;;;;;;5036693;28;20195;-48
2023/01/01 07:13:11;;;;;;;4.43;1.60;;;14.80;99.90;;;;;;5024658;28;20188;-48
2023/01/01 07:15:43;;;;;;;7.33;1.90;;;14.80;99.90;;;;;;5038263;28;20321;-51
2023/01/01 07:18:09;;;;;;;4.67;1.80;;;14.80;99.90;;;;;;5026860;28;20200;-51
2023/01/01 07:20:36;;;;;;;4.63;1.77;;;14.80;99.90;;;;;;5017362;28;20559;-52
2023/01/01 07:23:04;;;;;;;5.53;1.80;;;14.80;99.90;;;;;;5024032;28;20202;-47
2023/01/01 07:25:32;;;;;;;4.60;2.03;;;14.80;99.90;;;;;;5044074;28;20314;-49
2023/01/01 07:27:58;;;;;;;2.60;1.47;;;14.80;99.90;;;;;;5040779;28;20192;-50
2023/01/01 07:30:25;;;;;;;2.27;1.77;;;14.80;99.90;;;;;;5031349;28;20203;-46
2023/01/01 07:32:55;;;;;;;5.17;1.97;;;14.70;99.90;;;;;;5029326;28;20692;-51
2023/01/01 07:35:23;;;;;;;5.20;2.00;;;14.70;99.90;;;;;;5030462;28;20235;-50
2023/01/01 07:37:50;;;;;;;4.07;1.77;;;14.70;99.90;;;;;;5020839;28;20207;-46
2023/01/01 07:40:18;;;;;;;4.37;2.03;;;14.60;99.90;;;;;;5031078;28;20202;-47
2023/01/01 07:42:45;;;;;;;3.10;1.90;;;14.60;99.90;;;;;;5024178;28;20667;-47
2023/01/01 07:45:12;;;;;;;3.77;1.50;;;14.60;99.90;;;;;;5018720;28;20216;-45
2023/01/01 07:47:39;;;;;;;3.77;1.70;;;14.60;99.90;;;;;;5021452;28;20200;-46
2023/01/01 07:50:06;;;;;;;3.77;1.27;;;14.60;99.90;;;;;;5018001;28;20208;-47
2023/01/01 07:52:33;;;;;;;4.07;2.10;;;14.60;99.90;;;;;;5015874;28;20214;-47
2023/01/01 07:55:00;;;;;;;5.07;1.80;;;14.60;99.90;;;;;;5025511;28;20656;-46
2023/01/01 07:57:28;;;;;;;3.93;1.50;;;14.60;99.90;;;;;;5041935;28;20538;-49
2023/01/01 07:59:56;;;;;;;5.53;1.70;;;14.50;99.90;;;;;;5018736;28;20254;-49
2023/01/01 08:02:23;;;;;;;4.77;1.40;;;14.60;99.90;;;;;;5021596;28;20227;-48
2023/01/01 08:04:50;;;;;;;4.53;1.10;;;14.60;99.90;;;;;;5022862;28;20251;-51
2023/01/01 08:07:17;;;;;;;5.60;1.90;;;14.60;99.90;;;;;;5026292;28;20207;-48
2023/01/01 08:09:44;;;;;;;3.03;1.50;;;14.60;99.90;;;;;;5008772;28;20588;-47
2023/01/01 08:12:11;;;;;;;4.90;1.20;;;14.50;99.90;;;;;;5024250;28;20218;-50
2023/01/01 08:14:39;;;;;;;2.93;1.20;;;14.50;99.90;;;;;;5036509;28;20213;-49
2023/01/01 08:17:06;;;;;;;1.50;1.40;;;14.60;99.90;;;;;;5019023;28;20883;-48
2023/01/01 08:19:32;;;;;;;1.63;1.03;;;14.60;99.90;;;;;;5033647;28;20733;-49
2023/01/01 08:22:00;;;;;;;2.53;1.13;;;14.60;99.90;;;;;;5014143;28;20835;-50
2023/01/01 08:24:26;;;;;;;2.97;1.67;;;14.60;99.90;;;;;;5015440;28;20214;-49
2023/01/01 08:26:53;;;;;;;1.53;1.00;;;14.60;99.90;;;;;;5028461;28;20269;-46
2023/01/01 08:29:21;;;;;;;2.23;1.30;;;14.60;99.90;;;;;;5021084;28;20212;-45
2023/01/01 08:31:50;;;;;;;2.40;1.00;;;14.60;99.90;;;;;;5030367;28;20670;-46
2023/01/01 08:34:17;;;;;;;2.30;1.40;;;14.60;99.90;;;;;;5032041;28;20202;-48
2023/01/01 08:36:44;;;;;;;5.37;1.30;;;14.50;99.90;;;;;;5027338;28;20227;-52
2023/01/01 08:39:10;;;;;;;1.93;1.00;;;14.50;99.90;;;;;;5018332;28;20207;-47
2023/01/01 08:41:37;;;;;;;3.03;1.20;;;14.50;99.90;;;;;;5014107;28;20985;-48
2023/01/01 08:44:05;;;;;;;2.80;1.53;;;14.50;99.90;;;;;;5024989;28;20206;-47
2023/01/01 08:46:31;;;;;;;0.70;0.70;;;14.50;99.90;;;;;;5030993;28;20220;-52
2023/01/01 08:49:00;;;;;;;5.20;1.13;;;14.50;99.90;;;;;;5035279;28;20202;-49
2023/01/01 08:51:27;;;;;;;3.43;1.00;;;14.50;99.90;;;;;;5023862;28;20211;-49
2023/01/01 08:53:54;;;;;;;3.47;0.70;;;14.50;99.90;;;;;;5027547;28;20210;-47
2023/01/01 08:56:21;;;;;;;3.50;0.90;;;14.50;99.90;;;;;;5015686;28;21693;-46
2023/01/01 08:58:48;;;;;;;1.07;0.60;;;14.50;99.90;;;;;;5034122;28;20253;-48
2023/01/01 09:01:15;;;;;;;2.93;1.00;;;14.50;99.90;;;;;;5038854;28;20260;-47
2023/01/01 09:03:42;;;;;;;3.33;0.73;;;14.40;99.90;;;;;;5037748;28;20309;-46
2023/01/01 09:06:10;;;;;;;1.07;0.90;;;14.40;99.90;;;;;;5032612;28;21361;-46
2023/01/01 09:08:37;;;;;;;2.33;0.97;;;14.40;99.90;;;;;;5032356;28;20205;-46
2023/01/01 09:11:04;;;;;;;2.07;0.90;;;14.40;99.90;;;;;;5014781;28;20740;-46
2023/01/01 09:13:33;;;;;;;3.03;0.90;;;14.50;99.90;;;;;;5031724;28;20200;-46
2023/01/01 09:16:00;;;;;;;1.27;0.80;;;14.50;99.90;;;;;;5037684;28;20682;-46
2023/01/01 09:18:27;;;;;;;3.07;0.90;;;14.40;99.90;;;;;;5043463;28;20199;-47
2023/01/01 09:20:54;;;;;;;2.33;0.83;;;14.40;99.90;;;;;;5042262;28;20206;-46
2023/01/01 09:23:22;;;;;;;2.87;0.67;;;14.40;99.90;;;;;;5041849;28;20270;-47
2023/01/01 09:25:49;;;;;;;2.63;0.90;;;14.40;99.90;;;;;;5029707;28;20246;-47
2023/01/01 09:28:16;;;;;;;2.13;0.70;;;14.30;99.90;;;;;;5021707;28;20187;-48
2023/01/01 09:30:42;;;;;;;4.63;0.80;;;14.30;99.90;;;;;;5035519;28;20273;-46
2023/01/01 09:33:10;;;;;;;5.60;1.10;;;14.30;99.90;;;;;;5033535;28;20237;-49
2023/01/01 09:35:37;;;;;;;1.47;0.73;;;14.30;99.90;;;;;;5030608;28;20226;-50
2023/01/01 09:38:05;;;;;;;3.47;0.80;;;14.20;99.90;;;;;;5030898;28;20282;-47
2023/01/01 09:40:46;;;;;;;2.17;0.80;;;14.20;99.90;;;;;;5033424;28;20538;-49
2023/01/01 09:43:24;;;;;;;2.90;0.83;;;14.20;99.90;;;;;;5016891;28;20208;-47
2023/01/01 09:45:57;;;;;;;2.13;1.00;;;14.20;99.90;;;;;;5036880;28;20234;-46
2023/01/01 09:48:26;;;;;;;2.93;1.53;;;14.20;99.90;;;;;;5032707;28;20207;-50
2023/01/01 09:50:53;;;;;;;6.73;0.80;;;14.20;99.90;;;;;;5027050;28;20207;-51
2023/01/01 09:53:27;;;;;;;3.43;0.70;;;14.20;99.90;;;;;;5037303;28;20195;-51
2023/01/01 09:55:58;;;;;;;2.63;0.63;;;14.10;99.90;;;;;;5034984;28;20209;-47
2023/01/01 09:58:27;;;;;;;2.70;0.90;;;14.10;99.90;;;;;;5013722;28;20208;-47
2023/01/01 10:01:00;;;;;;;6.57;1.33;;;14.10;99.90;;;;;;5033147;28;20286;-48
2023/01/01 10:03:37;;;;;;;2.50;0.70;;;14.10;99.90;;;;;;5028918;28;20223;-47
2023/01/01 10:06:15;;;;;;;1.40;0.70;;;14.10;99.90;;;;;;5030936;28;20694;-49
2023/01/01 10:08:57;;;;;;;2.00;0.80;;;14.10;99.90;;;;;;5026843;28;21138;-53
2023/01/01 10:11:31;;;;;;;2.20;0.80;;;14.10;99.90;;;;;;5029970;28;20203;-46
2023/01/01 10:14:01;;;;;;;4.07;0.77;;;14.10;99.90;;;;;;5011758;28;20216;-45
2023/01/01 10:16:34;;;;;;;6.30;0.60;;;14.10;99.90;;;;;;5019814;28;20305;-48
2023/01/01 10:19:11;;;;;;;1.73;0.50;;;14.10;99.90;;;;;;5031965;28;20207;-46
2023/01/01 10:21:42;;;;;;;2.70;0.90;;;14.10;99.90;;;;;;5018348;28;20964;-48
2023/01/01 10:24:30;;;;;;;2.30;0.73;;;14.10;99.90;;;;;;5035749;28;20624;-48
2023/01/01 10:27:03;;;;;;;1.87;0.80;;;14.10;99.90;;;;;;5024819;28;20235;-48
2023/01/01 10:29:38;;;;;;;2.80;0.90;;;14.20;99.90;;;;;;5005519;28;20219;-48
2023/01/01 10:32:17;;;;;;;2.03;1.03;;;14.20;99.90;;;;;;5028713;28;20199;-51
2023/01/01 10:34:44;;;;;;;3.83;1.10;;;14.20;99.90;;;;;;5020776;28;20195;-49
2023/01/01 10:37:13;;;;;;;3.47;1.00;;;14.20;99.90;;;;;;5022068;28;20210;-48
2023/01/01 10:39:42;;;;;;;3.83;0.90;;;14.20;99.90;;;;;;5020513;28;20900;-48
2023/01/01 10:42:12;;;;;;;1.30;0.60;;;14.20;99.90;;;;;;5024807;28;20195;-51
2023/01/01 10:44:40;;;;;;;0.93;0.70;;;14.20;99.90;;;;;;5001008;28;20433;-47
2023/01/01 10:47:24;;;;;;;2.97;1.00;;;14.30;99.90;;;;;;5026243;28;20219;-46
2023/01/01 10:49:55;;;;;;;4.23;0.70;;;14.30;99.90;;;;;;5018382;28;20806;-45
2023/01/01 10:52:27;;;;;;;2.53;0.93;;;14.40;99.90;;;;;;5021286;28;20342;-46
2023/01/01 10:54:54;;;;;;;1.50;0.60;;;14.40;99.90;;;;;;5027719;28;20289;-48
2023/01/01 10:57:31;;;;;;;1.90;0.63;;;14.40;99.90;;;;;;5025553;28;21842;-46
2023/01/01 11:00:21;;;;;;;3.37;1.00;;;14.40;99.90;;;;;;5017554;28;20203;-47
2023/01/01 11:03:00;;;;;;;3.70;0.90;;;14.50;99.90;;;;;;5024579;28;20203;-51
2023/01/01 11:05:28;;;;;;;3.27;0.70;;;14.40;99.90;;;;;;5032847;28;20243;-48
2023/01/01 11:07:55;;;;;;;3.33;0.60;;;14.40;99.90;;;;;;5029077;28;20306;-48
2023/01/01 11:10:24;;;;;;;3.10;0.70;;;14.40;99.90;;;;;;5038827;28;20199;-49
2023/01/01 11:12:53;;;;;;;2.30;0.80;;;14.30;99.90;;;;;;5036210;28;20200;-46
2023/01/01 11:15:23;;;;;;;3.93;0.90;;;14.30;99.90;;;;;;5030147;28;20230;-44
2023/01/01 11:17:51;;;;;;;5.10;1.20;;;14.20;99.90;;;;;;5019055;28;20282;-47
2023/01/01 11:20:20;;;;;;;3.87;1.03;;;14.20;99.90;;;;;;5030706;28;20198;-47
2023/01/01 11:22:50;;;;;;;3.27;1.27;;;14.10;99.90;;;;;;5017078;28;20203;-46
2023/01/01 11:25:21;;;;;;;2.40;0.97;;;14.10;99.90;;;;;;5034135;28;20242;-51
2023/01/01 11:27:49;;;;;;;2.97;0.77;;;14.00;99.90;;;;;;5026957;28;20630;-48
2023/01/01 11:30:25;;;;;;;3.63;1.10;;;14.00;99.90;;;;;;5028399;28;20577;-48
2023/01/01 11:32:57;;;;;;;2.87;0.90;;;14.00;99.90;;;;;;5015221;28;20199;-50
2023/01/01 11:35:26;;;;;;;5.80;1.60;;;14.00;99.90;;;;;;5023371;28;20223;-48
2023/01/01 11:37:54;;;;;;;2.87;0.90;;;14.00;99.90;;;;;;5029250;28;20199;-48
2023/01/01 11:40:24;;;;;;;8.00;1.33;;;14.00;99.90;;;;;;5020123;28;20558;-50
2023/01/01 11:42:54;;;;;;;6.03;0.93;;;14.00;99.90;;;;;;5026720;28;20674;-50
2023/01/01 11:45:25;;;;;;;5.53;1.17;;;14.00;99.90;;;;;;5022493;28;20924;-46
2023/01/01 11:47:56;;;;;;;2.87;1.27;;;13.90;99.90;;;;;;5009987;28;20219;-49
2023/01/01 11:50:28;;;;;;;3.10;1.00;;;14.00;99.90;;;;;;5028497;28;20199;-47
2023/01/01 11:52:58;;;;;;;5.03;0.90;;;14.00;99.90;;;;;;5032870;28;20217;-53
2023/01/01 11:55:38;;;;;;;7.57;1.00;;;13.90;99.90;;;;;;5032313;28;20250;-53
2023/01/01 11:58:13;;;;;;;4.77;1.00;;;14.00;99.90;;;;;;5031269;28;20207;-45
2023/01/01 12:00:42;;;;;;;3.60;1.20;;;14.00;99.90;;;;;;5031917;28;20198;-49
2023/01/01 12:03:22;;;;;;;4.40;1.20;;;14.00;99.90;;;;;;5010321;28;20216;-49
2023/01/01 12:05:52;;;;;;;3.50;1.03;;;14.00;99.90;;;;;;5035149;28;20216;-47
2023/01/01 12:08:27;;;;;;;2.50;0.70;;;14.00;99.90;;;;;;5034394;28;20196;-48
2023/01/01 12:10:58;;;;;;;5.23;1.20;;;13.90;99.90;;;;;;5030821;28;20211;-49
2023/01/01 12:13:29;;;;;;;2.87;0.83;;;13.90;99.90;;;;;;5024644;28;20204;-52
2023/01/01 12:16:06;;;;;;;3.80;1.10;;;13.90;99.90;;;;;;5027921;28;20223;-46
2023/01/01 12:18:40;;;;;;;6.47;0.87;;;13.90;99.90;;;;;;5013311;28;20550;-48
2023/01/01 12:21:14;;;;;;;3.13;0.80;;;13.90;99.90;;;;;;5035916;28;20195;-46
2023/01/01 12:23:41;;;;;;;4.17;0.93;;;13.80;99.90;;;;;;5029957;28;20183;-51
2023/01/01 12:26:17;;;;;;;6.27;1.30;;;13.80;99.90;;;;;;5028868;28;20242;-48
2023/01/01 12:28:57;;;;;;;2.87;0.97;;;13.80;99.90;;;;;;5035074;28;20268;-47
2023/01/01 12:31:37;;;;;;;3.37;1.10;;;13.80;99.90;;;;;;5023530;28;20296;-49
2023/01/01 12:34:11;;;;;;;3.40;1.10;;;13.80;99.90;;;;;;5012899;28;20211;-46
2023/01/01 12:36:45;;;;;;;1.60;0.70;;;13.80;99.90;;;;;;5034582;28;20206;-48
2023/01/01 12:39:58;;;;;;;3.37;0.90;;;13.80;99.90;;;;;;5027323;28;20203;-48
2023/01/01 12:42:39;;;;;;;3.63;1.13;;;13.80;99.90;;;;;;5031660;28;20200;-49
2023/01/01 12:45:26;;;;;;;2.80;0.60;;;13.90;99.90;;;;;;5026199;28;20904;-46
2023/01/01 12:48:03;;;;;;;4.53;1.30;;;13.90;99.90;;;;;;5023399;28;20765;-49
2023/01/01 12:50:40;;;;;;;3.20;0.83;;;13.90;99.90;;;;;;5017196;28;20570;-50
2023/01/01 12:53:19;;;;;;;2.80;0.70;;;13.90;99.90;;;;;;5026213;28;20266;-49
2023/01/01 12:56:12;;;;;;;3.67;0.80;;;14.00;99.90;;;;;;5020403;28;20219;-50
2023/01/01 12:58:43;;;;;;;3.77;0.70;;;13.90;99.90;;;;;;5021498;28;20204;-46
2023/01/01 13:01:14;;;;;;;2.73;0.90;;;13.90;99.90;;;;;;5027070;28;20195;-52
2023/01/01 13:03:49;;;;;;;3.30;1.00;;;13.90;99.90;;;;;;5020211;28;20207;-45